Elmar Dos — EAJM — position and weather

sailwx.info

Track history (hours):
 
Tides and Currents Weather Stations Pressure Air Temp Water Temp Dewpoint Dewpoint Depression Visibility Wind Speed Wind Dir Waves Ship Positions

Elmar Dos

Last reported at 2017-Nov-20 00:30 UTC. Time now 2017-Nov-21 23:19 UTC.
Position N 43°21' W 002°17'.

Length 40 m; draft 1.5 m.

Type: Dredging. MMSI: 224040390.

Date/timePositionNaut miles runAvg speedWind from/ knotsBaromVisibWave heightAir tempDewpointWater temp
2017-Nov-20 00:30N 43°21' W 002°17'3 6.0
2017-Nov-20 00:00N 43°19' W 002°15'1 0.7
2017-Nov-19 22:19N 43°18' W 002°15'0 0.0
2017-Nov-19 21:49N 43°18' W 002°15'1 2.0
2017-Nov-19 21:31N 43°18' W 002°15'3 5.5
2017-Nov-19 21:01N 43°21' W 002°17'3 6.3
2017-Nov-19 20:30N 43°23' W 002°19'1 1.1
2017-Nov-19 20:01N 43°23' W 002°19'3 6.2
2017-Nov-19 19:31N 43°21' W 002°16'3 5.2
2017-Nov-19 19:00N 43°18' W 002°15'0 0.2
2017-Nov-19 17:19N 43°18' W 002°15'0 0.2
2017-Nov-19 17:00N 43°18' W 002°15'2 4.8
2017-Nov-19 16:31N 43°20' W 002°16'3 6.4
2017-Nov-19 16:00N 43°23' W 002°19'0 0.7
2017-Nov-19 15:31N 43°23' W 002°19'3 5.6
2017-Nov-19 15:00N 43°21' W 002°17'3 5.7
2017-Nov-19 14:31N 43°18' W 002°15'1 1.5
2017-Nov-19 13:59N 43°18' W 002°15'0 0.0
2017-Nov-19 12:42N 43°18' W 002°15'0 0.3
2017-Nov-19 12:30N 43°18' W 002°15'2 4.6
2017-Nov-19 12:01N 43°20' W 002°16'3 6.6
2017-Nov-19 11:31N 43°23' W 002°19'0 1.0
2017-Nov-19 11:01N 43°23' W 002°19'3 5.9
2017-Nov-19 10:31N 43°21' W 002°16'3 5.5
2017-Nov-19 10:00N 43°18' W 002°15'1 1.0
2017-Nov-19 09:30N 43°18' W 002°15'0 0.0
2017-Nov-19 09:00N 43°18' W 002°15'0 0.4
2017-Nov-19 08:30N 43°18' W 002°15'3 5.1
2017-Nov-19 08:01N 43°20' W 002°17'3 6.4
2017-Nov-19 07:30N 43°23' W 002°19'0 0.4
2017-Nov-19 07:00N 43°23' W 002°19'3 5.9
2017-Nov-19 06:31N 43°21' W 002°16'3 5.3
2017-Nov-19 06:00N 43°18' W 002°15'0 0.7
2017-Nov-19 05:24N 43°18' W 002°15'0 0.0
2017-Nov-19 04:26N 43°18' W 002°15'0 0.0
2017-Nov-19 03:58N 43°18' W 002°15'0 0.0
2017-Nov-19 02:58N 43°18' W 002°15'0 0.3
2017-Nov-19 02:30N 43°18' W 002°15'2 4.1
2017-Nov-19 02:01N 43°20' W 002°16'3 6.4
2017-Nov-19 01:30N 43°22' W 002°19'1 3.0
2017-Nov-19 01:00N 43°24' W 002°19'3 5.8
2017-Nov-19 00:30N 43°21' W 002°17'3 5.9
2017-Nov-19 00:01N 43°19' W 002°15'1 1.0
2017-Nov-18 22:48N 43°18' W 002°15'0 0.0
2017-Nov-18 22:27N 43°18' W 002°15'0 0.3
2017-Nov-18 22:00N 43°18' W 002°15'2 4.0
2017-Nov-18 21:31N 43°20' W 002°16'3 6.4
2017-Nov-18 21:01N 43°22' W 002°18'1 2.9
2017-Nov-18 20:31N 43°24' W 002°19'3 5.7
2017-Nov-18 20:00N 43°21' W 002°17'3 5.8
2017-Nov-18 19:31N 43°19' W 002°15'1 0.7
2017-Nov-18 17:50N 43°18' W 002°15'0 0.0
2017-Nov-18 17:30N 43°18' W 002°15'2 4.4
2017-Nov-18 17:00N 43°20' W 002°16'3 6.3
2017-Nov-18 16:31N 43°22' W 002°19'1 2.1
2017-Nov-18 16:01N 43°23' W 002°19'3 5.4
2017-Nov-18 15:30N 43°21' W 002°17'3 5.3
2017-Nov-18 15:01N 43°19' W 002°15'1 0.7
2017-Nov-18 13:16N 43°18' W 002°15'0 0.2
2017-Nov-18 12:56N 43°18' W 002°15'2 4.7
2017-Nov-18 12:31N 43°20' W 002°16'3 6.6
2017-Nov-18 12:01N 43°22' W 002°19'1 2.0
2017-Nov-18 11:30N 43°23' W 002°19'3 5.3
2017-Nov-18 11:01N 43°21' W 002°17'3 5.3
2017-Nov-18 10:31N 43°19' W 002°15'1 2.4
2017-Nov-18 09:59N 43°18' W 002°15'0 0.0
2017-Nov-18 08:42N 43°18' W 002°15'1 3.6
2017-Nov-18 08:30N 43°18' W 002°15'3 6.5
2017-Nov-18 08:01N 43°21' W 002°17'3 6.6
2017-Nov-18 07:31N 43°24' W 002°20'2 3.6
2017-Nov-18 07:00N 43°22' W 002°18'3 5.4
2017-Nov-18 06:30N 43°20' W 002°16'2 4.6
2017-Nov-18 06:00N 43°18' W 002°15'0 0.3
2017-Nov-18 05:28N 43°18' W 002°15'0 0.0
2017-Nov-18 04:25N 43°18' W 002°15'0 0.0
2017-Nov-18 03:50N 43°18' W 002°15'0 0.2
2017-Nov-18 03:30N 43°18' W 002°15'2 3.2
2017-Nov-18 03:00N 43°19' W 002°15'3 6.5
2017-Nov-18 02:30N 43°22' W 002°18'2 4.9
2017-Nov-18 02:01N 43°24' W 002°20'3 5.6
2017-Nov-18 01:30N 43°22' W 002°18'3 5.8
2017-Nov-18 01:00N 43°19' W 002°15'2 3.1
2017-Nov-18 00:30N 43°18' W 002°15'0 0.1
2017-Nov-17 23:11N 43°18' W 002°15'0 0.0
2017-Nov-17 22:57N 43°18' W 002°15'0 0.0
2017-Nov-17 22:30N 43°18' W 002°15'0 0.5
2017-Nov-17 22:00N 43°18' W 002°15'2 4.4
2017-Nov-17 21:30N 43°20' W 002°16'3 6.7
2017-Nov-17 21:00N 43°23' W 002°19'1 1.3
2017-Nov-17 20:30N 43°23' W 002°19'3 5.9
2017-Nov-17 20:01N 43°21' W 002°17'3 5.9
2017-Nov-17 19:31N 43°18' W 002°15'1 1.0
2017-Nov-17 18:42N 43°18' W 002°15'0 0.0
2017-Nov-17 18:26N 43°18' W 002°15'0 0.0
2017-Nov-17 17:59N 43°18' W 002°15'0 0.0
2017-Nov-17 17:30N 43°18' W 002°15'1 1.8
2017-Nov-17 17:00N 43°19' W 002°15'3 6.6
2017-Nov-17 16:31N 43°21' W 002°18'3 6.5
2017-Nov-17 16:00N 43°24' W 002°20'3 5.4
2017-Nov-17 15:31N 43°22' W 002°18'3 5.5
2017-Nov-17 15:01N 43°20' W 002°16'2 3.7
2017-Nov-17 14:30N 43°18' W 002°15'0 0.1
2017-Nov-17 14:00N 43°18' W 002°15'0 0.0
2017-Nov-17 12:48N 43°18' W 002°15'1 3.8
2017-Nov-17 12:31N 43°19' W 002°15'3 6.7
2017-Nov-17 12:01N 43°22' W 002°18'3 5.7
2017-Nov-17 11:31N 43°24' W 002°20'3 5.8
2017-Nov-17 11:00N 43°22' W 002°18'3 5.7
2017-Nov-17 10:30N 43°19' W 002°15'2 2.9
2017-Nov-17 09:59N 43°18' W 002°15'0 0.0
2017-Nov-17 09:30N 43°18' W 002°15'0 0.1
2017-Nov-17 08:39N 43°18' W 002°15'1 3.9
2017-Nov-17 08:30N 43°18' W 002°15'3 5.9
2017-Nov-17 08:01N 43°21' W 002°17'3 6.5
2017-Nov-17 07:30N 43°23' W 002°20'1 2.7
2017-Nov-17 07:00N 43°22' W 002°18'3 5.9
2017-Nov-17 06:30N 43°20' W 002°16'2 4.6
2017-Nov-17 06:01N 43°18' W 002°15'0 0.1
2017-Nov-17 05:24N 43°18' W 002°15'0 0.0
2017-Nov-17 04:55N 43°18' W 002°15'0 0.0
2017-Nov-17 04:31N 43°18' W 002°15'0 0.0
2017-Nov-17 03:59N 43°18' W 002°15'0 0.1
2017-Nov-17 03:31N 43°18' W 002°15'1 2.8
2017-Nov-17 03:00N 43°19' W 002°15'3 6.4
2017-Nov-17 02:31N 43°22' W 002°18'3 5.9
2017-Nov-17 02:00N 43°24' W 002°20'3 5.3
2017-Nov-17 01:31N 43°22' W 002°18'3 5.8
2017-Nov-17 01:01N 43°19' W 002°16'2 3.4
2017-Nov-17 00:30N 43°18' W 002°15'0 0.2
2017-Nov-16 23:59N 43°18' W 002°15'0 0.0
2017-Nov-16 23:30N 43°18' W 002°15'0 0.0
2017-Nov-16 23:00N 43°18' W 002°15'0 0.0
2017-Nov-16 22:25N 43°18' W 002°15'1 2.0
2017-Nov-16 22:00N 43°18' W 002°15'3 5.7
2017-Nov-16 21:30N 43°21' W 002°17'3 6.6
2017-Nov-16 21:01N 43°23' W 002°19'1 2.2
2017-Nov-16 20:31N 43°23' W 002°18'3 6.0
2017-Nov-16 20:00N 43°20' W 002°16'2 4.7
2017-Nov-16 19:30N 43°18' W 002°15'0 0.6
2017-Nov-16 19:00N 43°18' W 002°15'0 0.0
2017-Nov-16 17:32N 43°18' W 002°15'0 0.0
2017-Nov-16 17:28N 43°18' W 002°15'0 0.1
2017-Nov-16 17:00N 43°18' W 002°15'2 4.5
2017-Nov-16 16:31N 43°20' W 002°16'3 6.4
2017-Nov-16 16:01N 43°22' W 002°19'1 1.8
2017-Nov-16 15:30N 43°23' W 002°19'3 5.8
2017-Nov-16 15:01N 43°21' W 002°17'3 5.7
2017-Nov-16 14:31N 43°19' W 002°15'1 1.7
2017-Nov-16 14:00N 43°18' W 002°15'0 0.0
2017-Nov-16 13:30N 43°18' W 002°15'0 0.0
2017-Nov-16 12:58N 43°18' W 002°15'2 4.8
2017-Nov-16 12:31N 43°20' W 002°16'3 6.3
2017-Nov-16 12:01N 43°22' W 002°19'1 2.6
2017-Nov-16 11:30N 43°24' W 002°20'3 5.9
2017-Nov-16 11:00N 43°21' W 002°17'3 5.7
2017-Nov-16 10:31N 43°19' W 002°15'1 1.9
2017-Nov-16 09:58N 43°18' W 002°15'0 0.0
2017-Nov-16 09:27N 43°18' W 002°15'0 0.0
2017-Nov-16 09:00N 43°18' W 002°15'1 2.3
2017-Nov-16 08:31N 43°19' W 002°15'3 6.3
2017-Nov-16 08:01N 43°21' W 002°18'3 6.1
2017-Nov-16 07:31N 43°24' W 002°20'3 5.1
2017-Nov-16 07:01N 43°22' W 002°18'3 5.8
2017-Nov-16 06:31N 43°19' W 002°16'2 2.5
2017-Nov-16 05:49N 43°18' W 002°15'0 0.0
2017-Nov-16 05:29N 43°18' W 002°15'0 0.0
2017-Nov-16 04:57N 43°18' W 002°15'0 0.0
2017-Nov-16 04:30N 43°18' W 002°15'0 0.0
2017-Nov-16 04:00N 43°18' W 002°15'0 0.0
2017-Nov-16 03:30N 43°18' W 002°15'0 0.0
2017-Nov-16 02:59N 43°18' W 002°15'0 0.0
2017-Nov-16 02:30N 43°18' W 002°15'0 0.2
2017-Nov-16 02:01N 43°18' W 002°15'2 3.6
2017-Nov-16 01:31N 43°20' W 002°16'3 6.4
2017-Nov-16 01:01N 43°22' W 002°19'2 3.9
2017-Nov-16 00:30N 43°24' W 002°20'3 5.8
2017-Nov-16 00:01N 43°22' W 002°17'3 6.1
2017-Nov-15 23:31N 43°19' W 002°15'1 2.3
2017-Nov-15 22:59N 43°18' W 002°15'0 0.0
2017-Nov-15 22:30N 43°18' W 002°15'0 0.0
2017-Nov-15 21:55N 43°18' W 002°15'0 0.5
2017-Nov-15 21:30N 43°18' W 002°15'2 4.1
2017-Nov-15 21:01N 43°20' W 002°16'3 6.2
2017-Nov-15 20:30N 43°22' W 002°18'2 3.4
2017-Nov-15 20:00N 43°24' W 002°20'3 5.9
2017-Nov-15 19:30N 43°21' W 002°17'3 6.0
2017-Nov-15 19:01N 43°19' W 002°15'1 1.5
2017-Nov-15 18:20N 43°18' W 002°15'0 0.0
2017-Nov-15 17:58N 43°18' W 002°15'0 0.0
2017-Nov-15 17:29N 43°18' W 002°15'1 1.7
2017-Nov-15 17:00N 43°18' W 002°15'3 6.2
2017-Nov-15 16:31N 43°21' W 002°17'3 6.2
2017-Nov-15 16:01N 43°24' W 002°20'1 3.0
2017-Nov-15 15:31N 43°22' W 002°18'3 5.9
2017-Nov-15 15:01N 43°20' W 002°16'2 2.2
2017-Nov-15 13:59N 43°18' W 002°15'0 0.0
2017-Nov-15 13:31N 43°18' W 002°15'0 0.1
2017-Nov-15 13:01N 43°18' W 002°15'3 5.2
2017-Nov-15 12:30N 43°20' W 002°17'3 6.4
2017-Nov-15 12:01N 43°23' W 002°19'0 0.3
2017-Nov-15 11:30N 43°23' W 002°19'3 5.7
2017-Nov-15 11:01N 43°21' W 002°17'3 5.6
2017-Nov-15 10:31N 43°18' W 002°15'1 1.3
2017-Nov-15 09:58N 43°18' W 002°15'0 0.0
2017-Nov-15 09:08N 43°18' W 002°15'0 0.1
2017-Nov-15 08:59N 43°18' W 002°15'2 3.4
2017-Nov-15 08:31N 43°19' W 002°16'3 6.3
2017-Nov-15 08:01N 43°22' W 002°18'2 4.7
2017-Nov-15 07:31N 43°24' W 002°20'3 5.7
2017-Nov-15 07:00N 43°22' W 002°17'3 5.9
2017-Nov-15 06:31N 43°19' W 002°15'1 0.2
2017-Nov-15 02:55N 43°19' W 002°15'3 6.1
2017-Nov-15 02:30N 43°21' W 002°16'3 6.2
2017-Nov-15 02:00N 43°23' W 002°19'0 0.8
2017-Nov-15 01:30N 43°23' W 002°18'3 6.0
2017-Nov-15 01:00N 43°21' W 002°16'2 4.6
2017-Nov-15 00:30N 43°19' W 002°15'1 0.8
2017-Nov-14 23:16N 43°18' W 002°15'0 0.0
2017-Nov-14 22:56N 43°18' W 002°15'0 0.0
2017-Nov-14 22:31N 43°18' W 002°15'2 3.5
2017-Nov-14 22:00N 43°20' W 002°15'3 5.9
2017-Nov-14 21:31N 43°22' W 002°18'3 5.3
2017-Nov-14 21:00N 43°24' W 002°20'3 5.7
2017-Nov-14 20:30N 43°22' W 002°18'3 6.2
2017-Nov-14 20:01N 43°19' W 002°15'1 0.8
2017-Nov-14 18:19N 43°18' W 002°15'0 0.0
2017-Nov-14 18:00N 43°18' W 002°15'1 2.7
2017-Nov-14 17:30N 43°19' W 002°15'3 6.2
2017-Nov-14 17:01N 43°22' W 002°18'3 5.8
2017-Nov-14 16:31N 43°24' W 002°20'3 5.8
2017-Nov-14 16:01N 43°22' W 002°18'3 5.8
2017-Nov-14 15:31N 43°19' W 002°16'2 2.9
2017-Nov-14 14:59N 43°18' W 002°15'0 0.0
2017-Nov-14 14:30N 43°18' W 002°15'0 0.0
2017-Nov-14 13:59N 43°18' W 002°15'1 2.4
2017-Nov-14 13:30N 43°19' W 002°15'3 6.3
2017-Nov-14 13:01N 43°21' W 002°18'3 6.1
2017-Nov-14 12:31N 43°24' W 002°20'3 5.3
2017-Nov-14 12:01N 43°22' W 002°18'3 5.5
2017-Nov-14 11:31N 43°20' W 002°16'2 3.6
2017-Nov-14 10:59N 43°18' W 002°15'0 0.0
2017-Nov-14 10:30N 43°18' W 002°15'0 0.0
2017-Nov-14 10:00N 43°18' W 002°15'0 0.0
2017-Nov-14 09:30N 43°18' W 002°15'1 1.9
2017-Nov-14 09:00N 43°19' W 002°15'3 6.4
2017-Nov-14 08:30N 43°21' W 002°17'3 6.4
2017-Nov-14 08:00N 43°24' W 002°20'2 3.9
2017-Nov-14 07:31N 43°22' W 002°18'3 5.4
2017-Nov-14 07:01N 43°20' W 002°16'2 4.3
2017-Nov-14 06:29N 43°18' W 002°15'0 0.1
2017-Nov-14 05:11N 43°18' W 002°15'0 0.1
2017-Nov-14 04:53N 43°18' W 002°15'1 2.9
2017-Nov-14 04:30N 43°19' W 002°15'3 5.8
2017-Nov-14 03:59N 43°21' W 002°17'3 5.7
2017-Nov-14 03:30N 43°24' W 002°19'1 2.2
2017-Nov-14 03:01N 43°23' W 002°18'3 5.7
2017-Nov-14 02:30N 43°20' W 002°16'2 4.9
2017-Nov-14 02:01N 43°18' W 002°15'1 1.0
2017-Nov-14 01:28N 43°18' W 002°15'0 0.0
2017-Nov-14 00:43N 43°18' W 002°15'0 0.0
2017-Nov-14 00:27N 43°18' W 002°15'1 2.6
2017-Nov-14 00:00N 43°19' W 002°15'3 5.6
2017-Nov-13 23:30N 43°21' W 002°17'3 5.7
2017-Nov-13 23:00N 43°24' W 002°20'2 3.2
2017-Nov-13 22:30N 43°22' W 002°18'3 5.4
2017-Nov-13 22:00N 43°20' W 002°16'3 0.1
2017-Nov-12 10:27N 43°18' W 002°15'0 0.0
2017-Nov-11 10:49N 43°18' W 002°15'0 0.0
2017-Nov-11 10:28N 43°18' W 002°15'0 0.0
2017-Nov-11 10:00N 43°18' W 002°15'0 0.0
2017-Nov-11 08:52N 43°18' W 002°15'0 0.0
2017-Nov-11 08:30N 43°18' W 002°15'0 0.0
2017-Nov-11 07:43N 43°18' W 002°15'0 0.0
2017-Nov-11 07:30N 43°18' W 002°15'0 0.0
2017-Nov-11 06:53N 43°18' W 002°15'0 0.0
2017-Nov-10 20:08N 43°18' W 002°15'0 0.0
2017-Nov-10 19:43N 43°18' W 002°15'1 2.6
2017-Nov-10 19:30N 43°18' W 002°15'3 5.1
2017-Nov-10 19:00N 43°20' W 002°17'3 6.7
2017-Nov-10 18:30N 43°23' W 002°19'1 1.5
2017-Nov-10 18:00N 43°23' W 002°19'2 4.0
2017-Nov-10 17:30N 43°21' W 002°17'2 4.2
2017-Nov-10 17:00N 43°19' W 002°15'2 1.7
2017-Nov-10 16:07N 43°18' W 002°15'0 0.0
2017-Nov-10 15:23N 43°18' W 002°15'0 0.0
2017-Nov-10 14:20N 43°18' W 002°15'1 4.4
2017-Nov-10 14:00N 43°19' W 002°15'3 6.7
2017-Nov-10 13:30N 43°22' W 002°18'2 4.1
2017-Nov-10 13:00N 43°24' W 002°20'2 4.7
2017-Nov-10 12:30N 43°22' W 002°18'3 5.2
2017-Nov-10 12:00N 43°20' W 002°16'2 3.7
2017-Nov-10 11:30N 43°18' W 002°15'0 0.0
2017-Nov-10 11:00N 43°18' W 002°15'0 0.0
2017-Nov-10 10:28N 43°18' W 002°15'0 0.0
2017-Nov-10 09:08N 43°18' W 002°15'0 0.0
2017-Nov-10 08:45N 43°18' W 002°15'0 0.0
2017-Nov-10 08:29N 43°18' W 002°15'0 0.0
2017-Nov-10 07:59N 43°18' W 002°15'0 0.0
2017-Nov-10 07:30N 43°18' W 002°15'  
Track history (hours):
 
Tides and Currents Weather Stations Pressure Air Temp Water Temp Dewpoint Dewpoint Depression Visibility Wind Speed Wind Dir Waves Ship Positions

Elmar Dos

Last reported at 2017-Nov-20 00:30 UTC. Time now 2017-Nov-21 23:19 UTC.
Position N 43°21' W 002°17'.

Length 40 m; draft 1.5 m.

Type: Dredging. MMSI: 224040390.

Date/timePositionNaut miles runAvg speedWind from/ knotsBaromVisibWave heightAir tempDewpointWater temp
2017-Nov-20 00:30N 43°21' W 002°17'3 6.0
2017-Nov-20 00:00N 43°19' W 002°15'1 0.7
2017-Nov-19 22:19N 43°18' W 002°15'0 0.0
2017-Nov-19 21:49N 43°18' W 002°15'1 2.0
2017-Nov-19 21:31N 43°18' W 002°15'3 5.5
2017-Nov-19 21:01N 43°21' W 002°17'3 6.3
2017-Nov-19 20:30N 43°23' W 002°19'1 1.1
2017-Nov-19 20:01N 43°23' W 002°19'3 6.2
2017-Nov-19 19:31N 43°21' W 002°16'3 5.2
2017-Nov-19 19:00N 43°18' W 002°15'0 0.2
2017-Nov-19 17:19N 43°18' W 002°15'0 0.2
2017-Nov-19 17:00N 43°18' W 002°15'2 4.8
2017-Nov-19 16:31N 43°20' W 002°16'3 6.4
2017-Nov-19 16:00N 43°23' W 002°19'0 0.7
2017-Nov-19 15:31N 43°23' W 002°19'3 5.6
2017-Nov-19 15:00N 43°21' W 002°17'3 5.7
2017-Nov-19 14:31N 43°18' W 002°15'1 1.5
2017-Nov-19 13:59N 43°18' W 002°15'0 0.0
2017-Nov-19 12:42N 43°18' W 002°15'0 0.3
2017-Nov-19 12:30N 43°18' W 002°15'2 4.6
2017-Nov-19 12:01N 43°20' W 002°16'3 6.6
2017-Nov-19 11:31N 43°23' W 002°19'0 1.0
2017-Nov-19 11:01N 43°23' W 002°19'3 5.9
2017-Nov-19 10:31N 43°21' W 002°16'3 5.5
2017-Nov-19 10:00N 43°18' W 002°15'1 1.0
2017-Nov-19 09:30N 43°18' W 002°15'0 0.0
2017-Nov-19 09:00N 43°18' W 002°15'0 0.4
2017-Nov-19 08:30N 43°18' W 002°15'3 5.1
2017-Nov-19 08:01N 43°20' W 002°17'3 6.4
2017-Nov-19 07:30N 43°23' W 002°19'0 0.4
2017-Nov-19 07:00N 43°23' W 002°19'3 5.9
2017-Nov-19 06:31N 43°21' W 002°16'3 5.3
2017-Nov-19 06:00N 43°18' W 002°15'0 0.7
2017-Nov-19 05:24N 43°18' W 002°15'0 0.0
2017-Nov-19 04:26N 43°18' W 002°15'0 0.0
2017-Nov-19 03:58N 43°18' W 002°15'0 0.0
2017-Nov-19 02:58N 43°18' W 002°15'0 0.3
2017-Nov-19 02:30N 43°18' W 002°15'2 4.1
2017-Nov-19 02:01N 43°20' W 002°16'3 6.4
2017-Nov-19 01:30N 43°22' W 002°19'1 3.0
2017-Nov-19 01:00N 43°24' W 002°19'3 5.8
2017-Nov-19 00:30N 43°21' W 002°17'3 5.9
2017-Nov-19 00:01N 43°19' W 002°15'1 1.0
2017-Nov-18 22:48N 43°18' W 002°15'0 0.0
2017-Nov-18 22:27N 43°18' W 002°15'0 0.3
2017-Nov-18 22:00N 43°18' W 002°15'2 4.0
2017-Nov-18 21:31N 43°20' W 002°16'3 6.4
2017-Nov-18 21:01N 43°22' W 002°18'1 2.9
2017-Nov-18 20:31N 43°24' W 002°19'3 5.7
2017-Nov-18 20:00N 43°21' W 002°17'3 5.8
2017-Nov-18 19:31N 43°19' W 002°15'1 0.7
2017-Nov-18 17:50N 43°18' W 002°15'0 0.0
2017-Nov-18 17:30N 43°18' W 002°15'2 4.4
2017-Nov-18 17:00N 43°20' W 002°16'3 6.3
2017-Nov-18 16:31N 43°22' W 002°19'1 2.1
2017-Nov-18 16:01N 43°23' W 002°19'3 5.4
2017-Nov-18 15:30N 43°21' W 002°17'3 5.3
2017-Nov-18 15:01N 43°19' W 002°15'1 0.7
2017-Nov-18 13:16N 43°18' W 002°15'0 0.2
2017-Nov-18 12:56N 43°18' W 002°15'2 4.7
2017-Nov-18 12:31N 43°20' W 002°16'3 6.6
2017-Nov-18 12:01N 43°22' W 002°19'1 2.0
2017-Nov-18 11:30N 43°23' W 002°19'3 5.3
2017-Nov-18 11:01N 43°21' W 002°17'3 5.3
2017-Nov-18 10:31N 43°19' W 002°15'1 2.4
2017-Nov-18 09:59N 43°18' W 002°15'0 0.0
2017-Nov-18 08:42N 43°18' W 002°15'1 3.6
2017-Nov-18 08:30N 43°18' W 002°15'3 6.5
2017-Nov-18 08:01N 43°21' W 002°17'3 6.6
2017-Nov-18 07:31N 43°24' W 002°20'2 3.6
2017-Nov-18 07:00N 43°22' W 002°18'3 5.4
2017-Nov-18 06:30N 43°20' W 002°16'2 4.6
2017-Nov-18 06:00N 43°18' W 002°15'0 0.3
2017-Nov-18 05:28N 43°18' W 002°15'0 0.0
2017-Nov-18 04:25N 43°18' W 002°15'0 0.0
2017-Nov-18 03:50N 43°18' W 002°15'0 0.2
2017-Nov-18 03:30N 43°18' W 002°15'2 3.2
2017-Nov-18 03:00N 43°19' W 002°15'3 6.5
2017-Nov-18 02:30N 43°22' W 002°18'2 4.9
2017-Nov-18 02:01N 43°24' W 002°20'3 5.6
2017-Nov-18 01:30N 43°22' W 002°18'3 5.8
2017-Nov-18 01:00N 43°19' W 002°15'2 3.1
2017-Nov-18 00:30N 43°18' W 002°15'0 0.1
2017-Nov-17 23:11N 43°18' W 002°15'0 0.0
2017-Nov-17 22:57N 43°18' W 002°15'0 0.0
2017-Nov-17 22:30N 43°18' W 002°15'0 0.5
2017-Nov-17 22:00N 43°18' W 002°15'2 4.4
2017-Nov-17 21:30N 43°20' W 002°16'3 6.7
2017-Nov-17 21:00N 43°23' W 002°19'1 1.3
2017-Nov-17 20:30N 43°23' W 002°19'3 5.9
2017-Nov-17 20:01N 43°21' W 002°17'3 5.9
2017-Nov-17 19:31N 43°18' W 002°15'1 1.0
2017-Nov-17 18:42N 43°18' W 002°15'0 0.0
2017-Nov-17 18:26N 43°18' W 002°15'0 0.0
2017-Nov-17 17:59N 43°18' W 002°15'0 0.0
2017-Nov-17 17:30N 43°18' W 002°15'1 1.8
2017-Nov-17 17:00N 43°19' W 002°15'3 6.6
2017-Nov-17 16:31N 43°21' W 002°18'3 6.5
2017-Nov-17 16:00N 43°24' W 002°20'3 5.4
2017-Nov-17 15:31N 43°22' W 002°18'3 5.5
2017-Nov-17 15:01N 43°20' W 002°16'2 3.7
2017-Nov-17 14:30N 43°18' W 002°15'0 0.1
2017-Nov-17 14:00N 43°18' W 002°15'0 0.0
2017-Nov-17 12:48N 43°18' W 002°15'1 3.8
2017-Nov-17 12:31N 43°19' W 002°15'3 6.7
2017-Nov-17 12:01N 43°22' W 002°18'3 5.7
2017-Nov-17 11:31N 43°24' W 002°20'3 5.8
2017-Nov-17 11:00N 43°22' W 002°18'3 5.7
2017-Nov-17 10:30N 43°19' W 002°15'2 2.9
2017-Nov-17 09:59N 43°18' W 002°15'0 0.0
2017-Nov-17 09:30N 43°18' W 002°15'0 0.1
2017-Nov-17 08:39N 43°18' W 002°15'1 3.9
2017-Nov-17 08:30N 43°18' W 002°15'3 5.9
2017-Nov-17 08:01N 43°21' W 002°17'3 6.5
2017-Nov-17 07:30N 43°23' W 002°20'1 2.7
2017-Nov-17 07:00N 43°22' W 002°18'3 5.9
2017-Nov-17 06:30N 43°20' W 002°16'2 4.6
2017-Nov-17 06:01N 43°18' W 002°15'0 0.1
2017-Nov-17 05:24N 43°18' W 002°15'0 0.0
2017-Nov-17 04:55N 43°18' W 002°15'0 0.0
2017-Nov-17 04:31N 43°18' W 002°15'0 0.0
2017-Nov-17 03:59N 43°18' W 002°15'0 0.1
2017-Nov-17 03:31N 43°18' W 002°15'1 2.8
2017-Nov-17 03:00N 43°19' W 002°15'3 6.4
2017-Nov-17 02:31N 43°22' W 002°18'3 5.9
2017-Nov-17 02:00N 43°24' W 002°20'3 5.3
2017-Nov-17 01:31N 43°22' W 002°18'3 5.8
2017-Nov-17 01:01N 43°19' W 002°16'2 3.4
2017-Nov-17 00:30N 43°18' W 002°15'0 0.2
2017-Nov-16 23:59N 43°18' W 002°15'0 0.0
2017-Nov-16 23:30N 43°18' W 002°15'0 0.0
2017-Nov-16 23:00N 43°18' W 002°15'0 0.0
2017-Nov-16 22:25N 43°18' W 002°15'1 2.0
2017-Nov-16 22:00N 43°18' W 002°15'3 5.7
2017-Nov-16 21:30N 43°21' W 002°17'3 6.6
2017-Nov-16 21:01N 43°23' W 002°19'1 2.2
2017-Nov-16 20:31N 43°23' W 002°18'3 6.0
2017-Nov-16 20:00N 43°20' W 002°16'2 4.7
2017-Nov-16 19:30N 43°18' W 002°15'0 0.6
2017-Nov-16 19:00N 43°18' W 002°15'0 0.0
2017-Nov-16 17:32N 43°18' W 002°15'0 0.0
2017-Nov-16 17:28N 43°18' W 002°15'0 0.1
2017-Nov-16 17:00N 43°18' W 002°15'2 4.5
2017-Nov-16 16:31N 43°20' W 002°16'3 6.4
2017-Nov-16 16:01N 43°22' W 002°19'1 1.8
2017-Nov-16 15:30N 43°23' W 002°19'3 5.8
2017-Nov-16 15:01N 43°21' W 002°17'3 5.7
2017-Nov-16 14:31N 43°19' W 002°15'1 1.7
2017-Nov-16 14:00N 43°18' W 002°15'0 0.0
2017-Nov-16 13:30N 43°18' W 002°15'0 0.0
2017-Nov-16 12:58N 43°18' W 002°15'2 4.8
2017-Nov-16 12:31N 43°20' W 002°16'3 6.3
2017-Nov-16 12:01N 43°22' W 002°19'1 2.6
2017-Nov-16 11:30N 43°24' W 002°20'3 5.9
2017-Nov-16 11:00N 43°21' W 002°17'3 5.7
2017-Nov-16 10:31N 43°19' W 002°15'1 1.9
2017-Nov-16 09:58N 43°18' W 002°15'0 0.0
2017-Nov-16 09:27N 43°18' W 002°15'0 0.0
2017-Nov-16 09:00N 43°18' W 002°15'1 2.3
2017-Nov-16 08:31N 43°19' W 002°15'3 6.3
2017-Nov-16 08:01N 43°21' W 002°18'3 6.1
2017-Nov-16 07:31N 43°24' W 002°20'3 5.1
2017-Nov-16 07:01N 43°22' W 002°18'3 5.8
2017-Nov-16 06:31N 43°19' W 002°16'2 2.5
2017-Nov-16 05:49N 43°18' W 002°15'0 0.0
2017-Nov-16 05:29N 43°18' W 002°15'0 0.0
2017-Nov-16 04:57N 43°18' W 002°15'0 0.0
2017-Nov-16 04:30N 43°18' W 002°15'0 0.0
2017-Nov-16 04:00N 43°18' W 002°15'0 0.0
2017-Nov-16 03:30N 43°18' W 002°15'0 0.0
2017-Nov-16 02:59N 43°18' W 002°15'0 0.0
2017-Nov-16 02:30N 43°18' W 002°15'0 0.2
2017-Nov-16 02:01N 43°18' W 002°15'2 3.6
2017-Nov-16 01:31N 43°20' W 002°16'3 6.4
2017-Nov-16 01:01N 43°22' W 002°19'2 3.9
2017-Nov-16 00:30N 43°24' W 002°20'3 5.8
2017-Nov-16 00:01N 43°22' W 002°17'3 6.1
2017-Nov-15 23:31N 43°19' W 002°15'1 2.3
2017-Nov-15 22:59N 43°18' W 002°15'0 0.0
2017-Nov-15 22:30N 43°18' W 002°15'0 0.0
2017-Nov-15 21:55N 43°18' W 002°15'0 0.5
2017-Nov-15 21:30N 43°18' W 002°15'2 4.1
2017-Nov-15 21:01N 43°20' W 002°16'3 6.2
2017-Nov-15 20:30N 43°22' W 002°18'2 3.4
2017-Nov-15 20:00N 43°24' W 002°20'3 5.9
2017-Nov-15 19:30N 43°21' W 002°17'3 6.0
2017-Nov-15 19:01N 43°19' W 002°15'1 1.5
2017-Nov-15 18:20N 43°18' W 002°15'0 0.0
2017-Nov-15 17:58N 43°18' W 002°15'0 0.0
2017-Nov-15 17:29N 43°18' W 002°15'1 1.7
2017-Nov-15 17:00N 43°18' W 002°15'3 6.2
2017-Nov-15 16:31N 43°21' W 002°17'3 6.2
2017-Nov-15 16:01N 43°24' W 002°20'1 3.0
2017-Nov-15 15:31N 43°22' W 002°18'3 5.9
2017-Nov-15 15:01N 43°20' W 002°16'2 2.2
2017-Nov-15 13:59N 43°18' W 002°15'0 0.0
2017-Nov-15 13:31N 43°18' W 002°15'0 0.1
2017-Nov-15 13:01N 43°18' W 002°15'3 5.2
2017-Nov-15 12:30N 43°20' W 002°17'3 6.4
2017-Nov-15 12:01N 43°23' W 002°19'0 0.3
2017-Nov-15 11:30N 43°23' W 002°19'3 5.7
2017-Nov-15 11:01N 43°21' W 002°17'3 5.6
2017-Nov-15 10:31N 43°18' W 002°15'1 1.3
2017-Nov-15 09:58N 43°18' W 002°15'0 0.0
2017-Nov-15 09:08N 43°18' W 002°15'0 0.1
2017-Nov-15 08:59N 43°18' W 002°15'2 3.4
2017-Nov-15 08:31N 43°19' W 002°16'3 6.3
2017-Nov-15 08:01N 43°22' W 002°18'2 4.7
2017-Nov-15 07:31N 43°24' W 002°20'3 5.7
2017-Nov-15 07:00N 43°22' W 002°17'3 5.9
2017-Nov-15 06:31N 43°19' W 002°15'1 0.2
2017-Nov-15 02:55N 43°19' W 002°15'3 6.1
2017-Nov-15 02:30N 43°21' W 002°16'3 6.2
2017-Nov-15 02:00N 43°23' W 002°19'0 0.8
2017-Nov-15 01:30N 43°23' W 002°18'3 6.0
2017-Nov-15 01:00N 43°21' W 002°16'2 4.6
2017-Nov-15 00:30N 43°19' W 002°15'1 0.8
2017-Nov-14 23:16N 43°18' W 002°15'0 0.0
2017-Nov-14 22:56N 43°18' W 002°15'0 0.0
2017-Nov-14 22:31N 43°18' W 002°15'2 3.5
2017-Nov-14 22:00N 43°20' W 002°15'3 5.9
2017-Nov-14 21:31N 43°22' W 002°18'3 5.3
2017-Nov-14 21:00N 43°24' W 002°20'3 5.7
2017-Nov-14 20:30N 43°22' W 002°18'3 6.2
2017-Nov-14 20:01N 43°19' W 002°15'1 0.8
2017-Nov-14 18:19N 43°18' W 002°15'0 0.0
2017-Nov-14 18:00N 43°18' W 002°15'1 2.7
2017-Nov-14 17:30N 43°19' W 002°15'3 6.2
2017-Nov-14 17:01N 43°22' W 002°18'3 5.8
2017-Nov-14 16:31N 43°24' W 002°20'3 5.8
2017-Nov-14 16:01N 43°22' W 002°18'3 5.8
2017-Nov-14 15:31N 43°19' W 002°16'2 2.9
2017-Nov-14 14:59N 43°18' W 002°15'0 0.0
2017-Nov-14 14:30N 43°18' W 002°15'0 0.0
2017-Nov-14 13:59N 43°18' W 002°15'1 2.4
2017-Nov-14 13:30N 43°19' W 002°15'3 6.3
2017-Nov-14 13:01N 43°21' W 002°18'3 6.1
2017-Nov-14 12:31N 43°24' W 002°20'3 5.3
2017-Nov-14 12:01N 43°22' W 002°18'3 5.5
2017-Nov-14 11:31N 43°20' W 002°16'2 3.6
2017-Nov-14 10:59N 43°18' W 002°15'0 0.0
2017-Nov-14 10:30N 43°18' W 002°15'0 0.0
2017-Nov-14 10:00N 43°18' W 002°15'0 0.0
2017-Nov-14 09:30N 43°18' W 002°15'1 1.9
2017-Nov-14 09:00N 43°19' W 002°15'3 6.4
2017-Nov-14 08:30N 43°21' W 002°17'3 6.4
2017-Nov-14 08:00N 43°24' W 002°20'2 3.9
2017-Nov-14 07:31N 43°22' W 002°18'3 5.4
2017-Nov-14 07:01N 43°20' W 002°16'2 4.3
2017-Nov-14 06:29N 43°18' W 002°15'0 0.1
2017-Nov-14 05:11N 43°18' W 002°15'0 0.1
2017-Nov-14 04:53N 43°18' W 002°15'1 2.9
2017-Nov-14 04:30N 43°19' W 002°15'3 5.8
2017-Nov-14 03:59N 43°21' W 002°17'3 5.7
2017-Nov-14 03:30N 43°24' W 002°19'1 2.2
2017-Nov-14 03:01N 43°23' W 002°18'3 5.7
2017-Nov-14 02:30N 43°20' W 002°16'2 4.9
2017-Nov-14 02:01N 43°18' W 002°15'1 1.0
2017-Nov-14 01:28N 43°18' W 002°15'0 0.0
2017-Nov-14 00:43N 43°18' W 002°15'0 0.0
2017-Nov-14 00:27N 43°18' W 002°15'1 2.6
2017-Nov-14 00:00N 43°19' W 002°15'3 5.6
2017-Nov-13 23:30N 43°21' W 002°17'3 5.7
2017-Nov-13 23:00N 43°24' W 002°20'2 3.2
2017-Nov-13 22:30N 43°22' W 002°18'3 5.4
2017-Nov-13 22:00N 43°20' W 002°16'3 0.1
2017-Nov-12 10:27N 43°18' W 002°15'0 0.0
2017-Nov-11 10:49N 43°18' W 002°15'0 0.0
2017-Nov-11 10:28N 43°18' W 002°15'0 0.0
2017-Nov-11 10:00N 43°18' W 002°15'0 0.0
2017-Nov-11 08:52N 43°18' W 002°15'0 0.0
2017-Nov-11 08:30N 43°18' W 002°15'0 0.0
2017-Nov-11 07:43N 43°18' W 002°15'0 0.0
2017-Nov-11 07:30N 43°18' W 002°15'0 0.0
2017-Nov-11 06:53N 43°18' W 002°15'0 0.0
2017-Nov-10 20:08N 43°18' W 002°15'0 0.0
2017-Nov-10 19:43N 43°18' W 002°15'1 2.6
2017-Nov-10 19:30N 43°18' W 002°15'3 5.1
2017-Nov-10 19:00N 43°20' W 002°17'3 6.7
2017-Nov-10 18:30N 43°23' W 002°19'1 1.5
2017-Nov-10 18:00N 43°23' W 002°19'2 4.0
2017-Nov-10 17:30N 43°21' W 002°17'2 4.2
2017-Nov-10 17:00N 43°19' W 002°15'2 1.7
2017-Nov-10 16:07N 43°18' W 002°15'0 0.0
2017-Nov-10 15:23N 43°18' W 002°15'0 0.0
2017-Nov-10 14:20N 43°18' W 002°15'1 4.4
2017-Nov-10 14:00N 43°19' W 002°15'3 6.7
2017-Nov-10 13:30N 43°22' W 002°18'2 4.1
2017-Nov-10 13:00N 43°24' W 002°20'2 4.7
2017-Nov-10 12:30N 43°22' W 002°18'3 5.2
2017-Nov-10 12:00N 43°20' W 002°16'2 3.7
2017-Nov-10 11:30N 43°18' W 002°15'0 0.0
2017-Nov-10 11:00N 43°18' W 002°15'0 0.0
2017-Nov-10 10:28N 43°18' W 002°15'0 0.0
2017-Nov-10 09:08N 43°18' W 002°15'0 0.0
2017-Nov-10 08:45N 43°18' W 002°15'0 0.0
2017-Nov-10 08:29N 43°18' W 002°15'0 0.0
2017-Nov-10 07:59N 43°18' W 002°15'0 0.0
2017-Nov-10 07:30N 43°18' W 002°15'  

Dump ship's entire track history